Time;durP1;ratioP1;P1;durP2;ratioP2;P2;SDS_P1;SDS_P2;PMS_P1;PMS_P2;Temp;Humidity;BMP_temperature;BMP_pressure;BME280_temperature;BME280_humidity;BME280_pressure;Samples;Min_cycle;Max_cycle;Signal;HPM_P1;HPM_P2
2022/06/28 00:00:12;;;;;;;10.72;7.25;;;;;;;20.91;73.48;99900.17;1710941;82;22153;-69
2022/06/28 00:02:39;;;;;;;11.83;7.12;;;;;;;20.89;73.23;99897.75;1710111;81;21069;-69
2022/06/28 00:05:08;;;;;;;9.85;7.20;;;;;;;20.88;73.37;99902.34;1709962;83;21046;-68
2022/06/28 00:07:34;;;;;;;10.48;7.90;;;;;;;20.86;73.67;99910.30;1709818;82;20991;-69
2022/06/28 00:10:05;;;;;;;10.38;6.95;;;;;;;20.83;73.98;99903.46;1709385;83;21108;-67
2022/06/28 00:12:33;;;;;;;12.43;7.00;;;;;;;20.84;74.05;99904.27;1709760;83;21530;-69
2022/06/28 00:17:48;;;;;;;9.95;6.55;;;;;;;20.88;73.71;99900.33;1683583;84;21104;-69
2022/06/28 00:20:17;;;;;;;11.83;7.45;;;;;;;20.87;73.73;99895.11;1709058;83;21092;-69
2022/06/28 00:22:45;;;;;;;10.00;7.20;;;;;;;20.86;73.91;99897.70;1692567;83;21051;-69
2022/06/28 00:25:13;;;;;;;14.28;7.60;;;;;;;20.80;73.99;99890.23;1694420;84;21144;-69
2022/06/28 00:27:41;;;;;;;11.30;7.55;;;;;;;20.78;74.24;99891.20;1709773;82;21013;-69
2022/06/28 00:30:12;;;;;;;10.25;6.90;;;;;;;20.79;74.10;99890.03;1702684;84;21098;-68
2022/06/28 00:32:42;;;;;;;16.02;6.15;;;;;;;20.80;73.88;99888.25;1693297;83;20984;-69
2022/06/28 00:35:09;;;;;;;9.70;6.75;;;;;;;20.80;73.70;99888.83;1712973;82;21058;-69
2022/06/28 00:37:39;;;;;;;8.98;6.42;;;;;;;20.78;73.79;99891.20;1707292;83;21160;-69
2022/06/28 00:40:08;;;;;;;8.98;6.72;;;;;;;20.75;73.87;99889.16;1709540;82;21074;-69
2022/06/28 00:42:34;;;;;;;12.03;6.78;;;;;;;20.72;74.01;99887.95;1709305;83;21513;-69
2022/06/28 00:45:07;;;;;;;11.48;7.28;;;;;;;20.70;74.08;99889.50;1692899;84;20997;-68
2022/06/28 00:47:33;;;;;;;9.20;6.60;;;;;;;20.67;74.05;99889.09;1707326;82;21533;-69
2022/06/28 00:50:04;;;;;;;7.30;5.65;;;;;;;20.65;74.07;99886.45;1697998;83;21097;-69
2022/06/28 00:52:35;;;;;;;13.30;7.20;;;;;;;20.62;74.17;99885.23;1722515;82;21467;-68
2022/06/28 00:55:01;;;;;;;13.95;7.22;;;;;;;20.61;74.23;99891.22;1722599;82;21056;-69
2022/06/28 00:57:30;;;;;;;9.68;6.65;;;;;;;20.58;74.27;99890.55;1719117;82;21058;-69
2022/06/28 00:59:58;;;;;;;10.55;7.22;;;;;;;20.52;74.33;99885.28;1709869;83;21049;-68
2022/06/28 01:02:26;;;;;;;12.10;6.97;;;;;;;20.49;74.26;99888.84;1733477;81;21049;-69
2022/06/28 01:04:54;;;;;;;9.28;6.42;;;;;;;20.45;74.24;99887.19;1737943;82;21439;-69
2022/06/28 01:07:21;;;;;;;8.75;5.83;;;;;;;20.41;74.28;99885.16;1736677;81;21540;-69
2022/06/28 01:09:48;;;;;;;8.05;5.83;;;;;;;20.36;74.28;99886.89;1736290;82;21047;-69
2022/06/28 01:12:15;;;;;;;9.43;6.45;;;;;;;20.34;74.42;99892.05;1735854;81;21088;-69
2022/06/28 01:14:43;;;;;;;11.83;6.87;;;;;;;20.33;74.63;99885.44;1738512;82;21165;-69
2022/06/28 01:17:16;;;;;;;12.03;7.75;;;;;;;20.34;74.68;99882.84;1703486;83;20980;-68
2022/06/28 01:19:44;;;;;;;12.07;7.67;;;;;;;20.36;74.73;99877.09;1736965;82;22024;-68
2022/06/28 01:22:17;;;;;;;11.73;7.30;;;;;;;20.38;74.59;99876.72;1731967;81;21012;-68
2022/06/28 01:24:46;;;;;;;16.07;7.97;;;;;;;20.36;74.46;99885.48;1736314;82;21072;-68
2022/06/28 01:27:14;;;;;;;15.13;7.90;;;;;;;20.35;74.31;99885.25;1735726;81;21516;-69
2022/06/28 01:29:41;;;;;;;12.15;7.72;;;;;;;20.33;74.29;99884.85;1737128;82;21092;-69
2022/06/28 01:32:09;;;;;;;15.65;9.10;;;;;;;20.30;74.34;99882.20;1729201;81;21743;-69
2022/06/28 01:34:37;;;;;;;12.37;8.00;;;;;;;20.28;74.61;99878.97;1737150;82;21075;-69
2022/06/28 01:37:04;;;;;;;12.65;8.28;;;;;;;20.27;74.89;99879.35;1715485;82;21631;-70
2022/06/28 01:39:31;;;;;;;11.22;8.50;;;;;;;20.24;75.03;99875.33;1726794;83;21203;-69
2022/06/28 01:42:02;;;;;;;16.17;9.55;;;;;;;20.23;75.12;99875.12;1709720;83;21017;-68
2022/06/28 01:44:30;;;;;;;15.53;8.78;;;;;;;20.19;75.39;99873.67;1709626;83;21013;-69
2022/06/28 01:47:01;;;;;;;14.35;9.03;;;;;;;20.16;75.67;99873.00;1710671;83;20993;-69
2022/06/28 01:49:32;;;;;;;16.00;9.30;;;;;;;20.14;75.80;99869.80;1702789;82;21031;-69
2022/06/28 01:51:59;;;;;;;17.15;9.30;;;;;;;20.12;75.96;99873.56;1705355;83;21501;-68
2022/06/28 01:54:25;;;;;;;15.30;9.35;;;;;;;20.10;75.96;99868.94;1696466;83;21565;-68
2022/06/28 01:56:54;;;;;;;15.60;9.53;;;;;;;20.10;75.91;99871.73;1713780;82;21553;-69
2022/06/28 01:59:27;;;;;;;16.73;9.50;;;;;;;20.10;75.74;99868.94;1708188;82;21092;-68
2022/06/28 02:02:00;;;;;;;17.37;10.45;;;;;;;20.09;75.71;99872.11;1708017;82;21044;-69
2022/06/28 02:04:29;;;;;;;22.87;11.35;;;;;;;20.08;75.84;99867.71;1707846;84;21363;-69
2022/06/28 02:06:58;;;;;;;18.10;10.40;;;;;;;20.05;76.07;99867.86;1708073;84;21026;-68
2022/06/28 02:09:25;;;;;;;21.00;10.65;;;;;;;20.02;76.33;99868.59;1709408;82;21044;-68
2022/06/28 02:11:56;;;;;;;18.77;9.15;;;;;;;20.00;76.59;99874.56;1703142;82;21040;-69
2022/06/28 02:14:24;;;;;;;19.73;9.80;;;;;;;20.02;76.76;99869.41;1708331;83;21031;-68
2022/06/28 02:16:56;;;;;;;12.18;8.63;;;;;;;20.06;76.66;99869.48;1711478;82;21555;-68
2022/06/28 02:19:25;;;;;;;15.53;8.38;;;;;;;20.09;76.49;99867.33;1715309;83;21048;-69
2022/06/28 02:21:53;;;;;;;14.25;8.98;;;;;;;20.12;76.35;99869.37;1708109;84;21074;-69
2022/06/28 02:24:24;;;;;;;17.98;9.70;;;;;;;20.13;76.18;99873.77;1708449;84;21500;-69
2022/06/28 02:26:53;;;;;;;13.60;9.78;;;;;;;20.14;76.19;99875.40;1708443;84;21105;-69
2022/06/28 02:29:19;;;;;;;15.30;10.15;;;;;;;20.14;76.11;99871.78;1710394;82;21086;-69
2022/06/28 02:31:46;;;;;;;22.07;9.68;;;;;;;20.15;76.06;99869.19;1708297;84;21535;-68
2022/06/28 02:42:30;;;;;;;19.57;11.12;;;;;;;20.18;76.89;99867.84;1711081;82;21269;-69
2022/06/28 02:44:57;;;;;;;17.95;10.38;;;;;;;20.22;76.95;99870.70;1706570;83;21048;-67
2022/06/28 02:47:23;;;;;;;17.25;10.28;;;;;;;20.24;77.12;99872.53;1707703;84;21094;-71
2022/06/28 02:49:54;;;;;;;19.60;11.28;;;;;;;20.26;77.11;99866.56;1710822;82;21070;-69
2022/06/28 02:52:21;;;;;;;17.37;11.50;;;;;;;20.29;77.22;99868.59;1709010;83;21060;-69
2022/06/28 02:54:48;;;;;;;19.62;11.33;;;;;;;20.32;77.28;99872.03;1707339;82;21506;-69
2022/06/28 02:57:16;;;;;;;29.23;10.98;;;;;;;20.33;77.22;99863.87;1707982;83;21528;-69
2022/06/28 02:59:43;;;;;;;19.67;10.93;;;;;;;20.37;77.22;99864.70;1708157;84;21555;-69
2022/06/28 03:02:10;;;;;;;18.70;10.93;;;;;;;20.41;77.28;99868.95;1711932;82;21082;-69
2022/06/28 03:04:40;;;;;;;23.92;11.55;;;;;;;20.46;77.34;99866.41;1709258;83;20999;-69
2022/06/28 03:07:12;;;;;;;22.52;12.63;;;;;;;20.48;77.38;99865.44;1703688;83;21073;-69
2022/06/28 03:09:39;;;;;;;17.27;11.38;;;;;;;20.49;77.40;99865.06;1710027;83;21046;-68
2022/06/28 03:12:11;;;;;;;21.27;12.15;;;;;;;20.53;77.45;99863.71;1713560;82;21551;-70
2022/06/28 03:14:40;;;;;;;39.55;16.85;;;;;;;20.55;77.50;99858.55;1712794;82;21038;-68
2022/06/28 03:17:08;;;;;;;45.45;19.85;;;;;;;20.60;77.61;99867.19;1709791;83;21023;-70
2022/06/28 03:19:38;;;;;;;55.12;19.37;;;;;;;20.64;77.63;99863.25;1709050;82;21134;-69
2022/06/28 03:22:05;;;;;;;41.70;20.92;;;;;;;20.70;77.71;99867.11;1710874;82;21023;-69
2022/06/28 03:24:34;;;;;;;52.95;22.60;;;;;;;20.72;77.80;99869.75;1715785;82;21148;-70
2022/06/28 03:27:01;;;;;;;45.10;20.62;;;;;;;20.77;77.86;99862.42;1712750;82;21017;-67
2022/06/28 03:29:29;;;;;;;47.55;21.33;;;;;;;20.85;77.65;99864.69;1716566;82;21001;-70
2022/06/28 03:31:56;;;;;;;49.65;21.48;;;;;;;20.91;77.52;99870.16;1710241;82;21156;-70
2022/06/28 03:34:23;;;;;;;39.80;19.12;;;;;;;20.99;77.43;99865.48;1709822;82;21010;-68
2022/06/28 03:36:51;;;;;;;32.65;18.35;;;;;;;21.08;77.43;99865.77;1709838;82;21585;-70
2022/06/28 03:39:40;;;;;;;29.95;17.52;;;;;;;21.16;77.35;99867.45;1709035;82;21081;-70
2022/06/28 03:42:08;;;;;;;29.75;16.90;;;;;;;21.27;77.24;99865.55;1710579;82;21062;-69
2022/06/28 03:44:36;;;;;;;30.08;17.82;;;;;;;21.36;77.03;99870.84;1711654;82;21186;-70
2022/06/28 03:47:07;;;;;;;30.32;17.73;;;;;;;21.47;76.84;99867.34;1709620;83;21050;-70
2022/06/28 03:49:51;;;;;;;26.45;16.10;;;;;;;21.57;77.02;99875.03;1713939;82;21170;-69
2022/06/28 03:52:28;;;;;;;26.02;15.32;;;;;;;21.67;77.31;99871.30;1709546;83;21019;-71
2022/06/28 03:54:53;;;;;;;23.90;14.43;;;;;;;21.74;77.42;99877.78;1646135;82;21046;-68
2022/06/28 03:57:25;;;;;;;26.00;15.03;;;;;;;21.85;77.74;99876.47;1707460;83;21083;-70
2022/06/28 03:59:52;;;;;;;20.88;13.72;;;;;;;21.96;77.98;99872.95;1713152;82;21075;-69
2022/06/28 04:02:21;;;;;;;23.75;15.05;;;;;;;22.06;78.42;99875.02;1709229;82;21023;-70
2022/06/28 04:04:49;;;;;;;26.10;12.88;;;;;;;22.17;78.86;99872.88;1707903;82;21085;-70
2022/06/28 04:07:16;;;;;;;15.32;10.40;;;;;;;22.30;79.16;99876.16;1691723;83;21086;-70
2022/06/28 04:09:44;;;;;;;14.87;8.45;;;;;;;22.42;79.05;99882.03;1709097;83;21175;-70
2022/06/28 04:12:11;;;;;;;11.53;9.15;;;;;;;22.53;78.90;99874.48;1709583;83;21326;-70
2022/06/28 04:14:39;;;;;;;11.78;8.20;;;;;;;22.66;78.52;99875.55;1706335;83;21022;-70
2022/06/28 04:17:08;;;;;;;9.95;7.22;;;;;;;22.77;78.10;99872.80;1706301;84;21034;-69
2022/06/28 04:19:51;;;;;;;26.93;9.83;;;;;;;22.90;77.41;99873.23;1629940;87;21251;-70
2022/06/28 04:22:17;;;;;;;10.50;7.87;;;;;;;23.03;76.71;99869.47;1685845;83;22039;-69
2022/06/28 04:24:45;;;;;;;14.13;7.70;;;;;;;23.14;76.11;99866.67;1703574;84;21083;-70
2022/06/28 04:27:14;;;;;;;8.23;7.10;;;;;;;23.25;75.86;99866.70;1725909;83;21079;-69
2022/06/28 04:29:41;;;;;;;14.90;7.58;;;;;;;23.33;75.55;99874.75;1696643;83;21095;-70
2022/06/28 04:32:11;;;;;;;17.12;7.40;;;;;;;23.43;75.21;99871.77;1709260;83;21067;-69
2022/06/28 04:34:40;;;;;;;11.68;6.47;;;;;;;23.55;74.79;99879.00;1716804;82;21148;-71
2022/06/28 04:37:07;;;;;;;12.15;6.45;;;;;;;23.66;74.31;99869.77;1707396;82;21524;-71
2022/06/28 04:39:36;;;;;;;7.55;6.40;;;;;;;23.77;74.20;99873.97;1681234;84;21047;-70
2022/06/28 04:42:18;;;;;;;7.92;6.50;;;;;;;23.87;73.84;99877.38;1707331;84;21137;-70
2022/06/28 04:44:48;;;;;;;10.23;7.00;;;;;;;23.96;73.41;99876.97;1711702;82;21035;-69
2022/06/28 04:47:20;;;;;;;8.63;6.30;;;;;;;24.05;73.17;99875.94;1707313;82;21236;-69
2022/06/28 04:49:47;;;;;;;7.47;5.78;;;;;;;24.14;72.39;99882.55;1708798;83;21015;-70
2022/06/28 04:52:14;;;;;;;6.62;5.72;;;;;;;24.23;71.45;99872.32;1708725;82;21068;-70
2022/06/28 04:54:43;;;;;;;7.10;5.85;;;;;;;24.33;70.81;99877.72;1705983;83;21064;-69
2022/06/28 04:57:24;;;;;;;11.22;5.85;;;;;;;24.44;70.58;99879.10;1727055;82;21520;-70
2022/06/28 04:59:53;;;;;;;8.15;5.75;;;;;;;24.53;69.72;99877.27;1713817;83;21170;-70
2022/06/28 05:02:22;;;;;;;6.60;5.90;;;;;;;24.61;69.29;99874.62;1721287;82;21044;-69
2022/06/28 05:04:51;;;;;;;7.80;5.72;;;;;;;24.69;69.10;99875.38;1728489;82;21090;-68
2022/06/28 05:07:22;;;;;;;6.92;5.97;;;;;;;24.76;68.63;99875.35;1729856;81;21529;-68
2022/06/28 05:09:50;;;;;;;8.48;5.30;;;;;;;24.83;68.29;99871.70;1707773;83;21114;-69
2022/06/28 05:12:17;;;;;;;12.03;5.95;;;;;;;24.90;67.90;99870.85;1704551;83;21833;-69
2022/06/28 05:14:47;;;;;;;7.75;5.15;;;;;;;24.97;67.49;99870.85;1712121;83;21031;-68
2022/06/28 05:17:17;;;;;;;8.70;5.35;;;;;;;25.05;67.12;99864.55;1710042;82;21071;-70
2022/06/28 05:19:45;;;;;;;7.83;5.35;;;;;;;25.12;67.01;99856.06;1706299;83;21030;-69
2022/06/28 05:22:14;;;;;;;7.37;5.22;;;;;;;25.21;66.50;99854.20;1686746;83;21059;-70
2022/06/28 05:25:03;;;;;;;9.25;5.60;;;;;;;25.30;66.43;99856.53;1703045;84;21172;-70
2022/06/28 05:27:30;;;;;;;9.28;4.87;;;;;;;25.37;66.34;99853.66;1700735;82;21046;-71
2022/06/28 05:29:57;;;;;;;7.72;5.25;;;;;;;25.44;65.94;99848.58;1706669;84;21071;-68
2022/06/28 05:32:24;;;;;;;9.68;5.53;;;;;;;25.50;64.93;99858.18;1681398;84;21047;-70
2022/06/28 05:34:52;;;;;;;10.40;5.10;;;;;;;25.56;64.49;99851.50;1707656;84;21020;-70
2022/06/28 05:37:20;;;;;;;15.85;4.80;;;;;;;25.60;64.06;99852.28;1698047;83;21051;-70
2022/06/28 05:39:47;;;;;;;32.83;7.15;;;;;;;25.66;63.77;99847.63;1697000;83;21125;-70
2022/06/28 05:42:16;;;;;;;34.18;7.28;;;;;;;25.71;63.41;99850.79;1708038;82;21079;-70
2022/06/28 05:44:43;;;;;;;19.07;6.20;;;;;;;25.77;62.79;99849.73;1691363;83;21128;-70
2022/06/28 05:47:12;;;;;;;16.35;6.35;;;;;;;25.82;62.35;99852.11;1709394;83;21017;-68
2022/06/28 05:49:40;;;;;;;7.62;5.15;;;;;;;25.88;62.10;99851.84;1705422;84;21148;-70
2022/06/28 05:52:08;;;;;;;8.65;4.67;;;;;;;25.93;61.65;99856.85;1709557;83;21013;-70
2022/06/28 05:54:35;;;;;;;13.40;5.03;;;;;;;25.97;61.21;99856.19;1709376;83;21107;-70
2022/06/28 05:57:03;;;;;;;6.53;4.90;;;;;;;26.00;60.94;99849.09;1702421;83;21035;-70
2022/06/28 05:59:32;;;;;;;13.83;4.45;;;;;;;26.06;60.87;99855.70;1695777;83;21087;-70
2022/06/28 06:02:03;;;;;;;12.95;5.55;;;;;;;26.11;60.24;99853.83;1706888;83;22231;-71
2022/06/28 06:04:30;;;;;;;6.12;4.53;;;;;;;26.17;60.23;99855.59;1708892;83;21107;-69
2022/06/28 06:06:57;;;;;;;8.33;5.12;;;;;;;26.21;59.69;99861.39;1684139;82;21374;-70
2022/06/28 06:09:23;;;;;;;10.90;4.25;;;;;;;26.29;59.51;99858.49;1708584;83;21039;-70
2022/06/28 06:11:52;;;;;;;9.13;4.78;;;;;;;26.32;59.33;99861.28;1710693;82;21042;-70
2022/06/28 06:14:21;;;;;;;7.45;5.08;;;;;;;26.36;58.94;99859.23;1710896;82;21316;-71
2022/06/28 06:16:50;;;;;;;6.58;4.87;;;;;;;26.39;58.67;99864.66;1693418;83;20993;-70
2022/06/28 06:19:19;;;;;;;8.00;4.40;;;;;;;26.44;58.62;99854.28;1683293;83;21536;-70
2022/06/28 06:21:48;;;;;;;7.87;4.47;;;;;;;26.49;58.64;99845.34;1723069;81;21044;-69
2022/06/28 06:24:14;;;;;;;5.12;4.10;;;;;;;26.56;58.56;99842.26;1704567;82;21032;-71
2022/06/28 06:26:53;;;;;;;10.60;4.60;;;;;;;26.62;58.10;99843.38;1681683;82;21113;-71
2022/06/28 06:29:20;;;;;;;4.65;4.12;;;;;;;26.70;58.44;99841.28;1724540;82;21035;-70
2022/06/28 06:31:47;;;;;;;9.90;4.40;;;;;;;26.77;58.04;99842.56;1715175;83;21055;-69
2022/06/28 06:34:35;;;;;;;11.40;5.10;;;;;;;26.84;57.88;99841.06;1708036;82;21063;-70
2022/06/28 06:37:06;;;;;;;9.33;4.05;;;;;;;26.92;57.53;99845.98;1714642;81;21544;-67
2022/06/28 06:39:33;;;;;;;5.97;4.50;;;;;;;26.96;56.82;99848.16;1701820;83;21538;-71
2022/06/28 06:41:59;;;;;;;5.40;4.20;;;;;;;27.03;56.60;99845.06;1709055;83;21078;-69
2022/06/28 06:44:26;;;;;;;5.40;4.20;;;;;;;27.08;56.31;99847.41;1693105;83;21017;-69
2022/06/28 06:46:58;;;;;;;13.38;4.40;;;;;;;27.15;55.73;99848.73;1713704;83;21088;-70
2022/06/28 06:49:25;;;;;;;7.60;4.42;;;;;;;27.21;55.95;99847.64;1699612;84;21053;-68
2022/06/28 06:51:52;;;;;;;4.40;4.00;;;;;;;27.28;56.18;99843.91;1702639;83;21837;-69
2022/06/28 06:54:18;;;;;;;9.08;4.05;;;;;;;27.35;55.47;99842.34;1703552;82;21044;-70
2022/06/28 06:56:48;;;;;;;10.95;4.17;;;;;;;27.42;54.75;99845.67;1701205;83;21031;-68
2022/06/28 06:59:16;;;;;;;8.68;4.15;;;;;;;27.47;54.58;99845.19;1696589;83;21072;-72
2022/06/28 07:01:44;;;;;;;7.45;4.22;;;;;;;27.53;54.60;99842.68;1686075;82;21064;-70
2022/06/28 07:04:14;;;;;;;3.95;3.65;;;;;;;27.58;53.34;99840.17;1716044;83;21508;-70
2022/06/28 07:06:40;;;;;;;8.90;3.70;;;;;;;27.66;53.45;99842.85;1717653;82;21576;-70
2022/06/28 07:09:10;;;;;;;6.03;3.67;;;;;;;27.71;52.74;99845.22;1696102;83;21028;-70
2022/06/28 07:11:38;;;;;;;38.20;5.67;;;;;;;27.79;53.10;99844.49;1690403;83;21059;-70
2022/06/28 07:14:06;;;;;;;18.65;4.72;;;;;;;27.85;52.82;99837.70;1682448;83;21515;-69
2022/06/28 07:16:36;;;;;;;5.47;3.22;;;;;;;27.85;52.49;99842.75;1698107;83;21028;-70
2022/06/28 07:19:03;;;;;;;7.60;3.67;;;;;;;27.82;51.69;99845.04;1697967;83;21029;-69
2022/06/28 07:21:31;;;;;;;4.03;3.62;;;;;;;27.79;51.69;99831.76;1694782;83;21510;-70
2022/06/28 07:24:01;;;;;;;8.08;3.77;;;;;;;27.77;51.72;99833.61;1695732;83;21353;-69
2022/06/28 07:26:29;;;;;;;6.28;4.72;;;;;;;27.73;50.73;99842.77;1697922;83;21536;-70
2022/06/28 07:28:58;;;;;;;3.95;3.62;;;;;;;27.75;51.15;99841.72;1697982;83;21732;-70
2022/06/28 07:31:25;;;;;;;6.67;4.62;;;;;;;27.80;51.08;99842.64;1668184;85;21039;-68
2022/06/28 07:33:52;;;;;;;10.72;4.55;;;;;;;27.89;51.09;99841.28;1700303;83;21080;-69
2022/06/28 07:36:20;;;;;;;8.70;4.47;;;;;;;28.00;51.31;99843.89;1692459;84;21043;-71
2022/06/28 07:38:47;;;;;;;14.70;5.08;;;;;;;28.06;51.51;99845.00;1684532;83;21623;-70
2022/06/28 07:41:23;;;;;;;10.95;4.35;;;;;;;28.09;51.33;99849.80;1702904;82;21672;-70
2022/06/28 07:44:08;;;;;;;5.28;4.05;;;;;;;28.05;51.38;99849.05;1692700;83;21058;-69
2022/06/28 07:46:36;;;;;;;8.30;3.90;;;;;;;28.04;52.08;99853.12;1680493;84;21076;-69
2022/06/28 07:49:04;;;;;;;6.28;4.65;;;;;;;28.03;51.87;99852.31;1681698;84;21094;-69
2022/06/28 07:54:18;;;;;;;13.25;5.28;;;;;;;27.89;51.39;99863.31;1685386;84;21749;-69
2022/06/28 07:56:51;;;;;;;19.00;5.08;;;;;;;27.88;51.70;99858.05;1673512;84;21123;-68
2022/06/28 07:59:18;;;;;;;5.37;4.42;;;;;;;27.98;52.15;99866.97;1689885;84;21062;-68
2022/06/28 08:01:44;;;;;;;6.00;4.22;;;;;;;28.13;51.81;99861.05;1694807;83;21076;-69
2022/06/28 08:04:27;;;;;;;7.08;4.15;;;;;;;28.30;51.63;99860.52;1692372;82;21140;-68
2022/06/28 08:06:56;;;;;;;5.95;4.08;;;;;;;28.45;51.75;99858.22;1679632;84;21219;-69
2022/06/28 08:09:26;;;;;;;5.70;4.22;;;;;;;28.60;51.38;99860.13;1676363;84;21134;-70
2022/06/28 08:12:06;;;;;;;8.88;4.42;;;;;;;28.70;49.80;99856.88;1677328;84;21079;-70
2022/06/28 08:14:41;;;;;;;7.30;4.25;;;;;;;28.79;50.47;99854.88;1690713;83;21076;-68
2022/06/28 08:17:10;;;;;;;11.15;4.35;;;;;;;28.91;50.35;99849.95;1659466;86;21041;-68
2022/06/28 08:19:36;;;;;;;6.40;4.75;;;;;;;29.02;49.91;99849.72;1692907;83;21254;-69
2022/06/28 08:22:03;;;;;;;10.08;4.55;;;;;;;29.15;50.60;99847.62;1677578;84;21119;-71
2022/06/28 08:24:32;;;;;;;12.68;4.50;;;;;;;29.27;49.71;99846.92;1671761;85;21102;-70
2022/06/28 08:26:59;;;;;;;13.25;5.10;;;;;;;29.31;48.90;99845.40;1677626;84;21608;-70
2022/06/28 08:29:30;;;;;;;20.00;4.55;;;;;;;29.26;48.70;99849.56;1673554;85;21031;-70
2022/06/28 08:32:00;;;;;;;5.60;4.47;;;;;;;29.19;48.77;99848.95;1677404;84;21994;-69
2022/06/28 08:34:26;;;;;;;8.73;4.00;;;;;;;29.09;48.17;99844.50;1674847;85;21564;-68
2022/06/28 08:36:53;;;;;;;8.75;4.87;;;;;;;29.01;49.44;99841.66;1678443;85;21067;-70
2022/06/28 08:39:20;;;;;;;7.53;4.37;;;;;;;29.02;49.32;99836.16;1675124;85;21020;-69
2022/06/28 08:41:46;;;;;;;8.50;4.58;;;;;;;29.12;50.73;99841.42;1671404;85;21116;-69
2022/06/28 08:44:14;;;;;;;4.10;3.65;;;;;;;29.20;49.10;99838.58;1690744;84;21893;-70
2022/06/28 08:46:44;;;;;;;5.20;3.90;;;;;;;29.20;48.19;99834.33;1677819;84;21005;-70
2022/06/28 08:49:25;;;;;;;9.08;4.17;;;;;;;29.24;48.75;99835.66;1665609;84;21573;-69
2022/06/28 08:51:56;;;;;;;5.55;4.20;;;;;;;29.34;48.49;99833.19;1683025;84;21031;-70
2022/06/28 08:54:23;;;;;;;5.33;4.25;;;;;;;29.49;48.81;99831.39;1678373;84;21021;-70
2022/06/28 08:56:50;;;;;;;3.95;3.65;;;;;;;29.60;48.50;99826.27;1667994;84;21116;-69
2022/06/28 08:59:22;;;;;;;7.95;3.95;;;;;;;29.72;48.33;99829.64;1671576;84;21040;-69
2022/06/28 09:01:51;;;;;;;11.73;4.72;;;;;;;29.84;47.61;99828.88;1678109;85;21134;-69
2022/06/28 09:04:19;;;;;;;7.33;4.03;;;;;;;29.92;47.77;99823.02;1696269;83;21627;-70
2022/06/28 09:06:49;;;;;;;8.33;3.60;;;;;;;30.04;47.83;99825.73;1703495;82;21175;-67
2022/06/28 09:09:15;;;;;;;16.23;4.50;;;;;;;30.13;46.73;99821.61;1723696;82;21554;-68
2022/06/28 09:11:45;;;;;;;11.43;4.25;;;;;;;30.16;46.88;99817.89;1707518;81;21017;-68
2022/06/28 09:14:35;;;;;;;6.08;4.10;;;;;;;30.27;46.81;99819.02;1733078;81;21098;-69
2022/06/28 09:17:28;;;;;;;11.65;4.15;;;;;;;30.41;47.63;99822.69;1710767;81;21012;-70
2022/06/28 09:20:10;;;;;;;5.10;4.12;;;;;;;30.53;46.48;99829.02;1735908;81;21083;-70
2022/06/28 09:22:42;;;;;;;10.75;4.35;;;;;;;30.56;45.88;99832.38;1736823;81;21262;-69
2022/06/28 09:25:28;;;;;;;5.30;3.92;;;;;;;30.55;45.34;99819.43;1728536;81;21485;-70
2022/06/28 09:27:58;;;;;;;4.33;3.60;;;;;;;30.53;45.73;99823.34;1724313;81;21307;-71
2022/06/28 09:30:28;;;;;;;4.83;3.55;;;;;;;30.60;45.81;99814.61;1736932;82;21080;-69
2022/06/28 09:32:55;;;;;;;10.30;4.17;;;;;;;30.73;46.01;99811.77;1729368;83;21095;-71
2022/06/28 09:35:25;;;;;;;14.23;4.47;;;;;;;30.87;45.64;99811.79;1711737;83;21085;-71
2022/06/28 09:37:54;;;;;;;8.18;3.77;;;;;;;30.93;44.69;99811.41;1700763;83;21051;-70
2022/06/28 09:40:31;;;;;;;27.27;5.17;;;;;;;30.99;43.58;99805.31;1705154;82;21091;-71
2022/06/28 09:43:13;;;;;;;9.53;3.90;;;;;;;31.02;44.22;99801.55;1732976;82;21067;-67
2022/06/28 09:45:45;;;;;;;7.70;4.35;;;;;;;31.07;44.64;99799.56;1735818;82;21059;-70
2022/06/28 09:48:18;;;;;;;10.75;3.90;;;;;;;31.09;44.67;99798.48;1734287;82;21446;-69
2022/06/28 09:50:44;;;;;;;10.13;4.22;;;;;;;31.06;43.05;99796.55;1739173;81;21071;-70
2022/06/28 09:53:14;;;;;;;7.60;3.62;;;;;;;30.87;43.84;99791.89;1737818;82;21056;-70
2022/06/28 09:55:44;;;;;;;5.42;4.15;;;;;;;30.78;44.49;99779.13;1738366;82;21040;-69
2022/06/28 09:58:10;;;;;;;4.75;4.15;;;;;;;30.74;44.82;99786.34;1738626;82;21111;-69
2022/06/28 10:00:41;;;;;;;8.88;4.25;;;;;;;30.79;44.73;99778.51;1737122;82;21560;-70
2022/06/28 10:03:07;;;;;;;7.85;3.80;;;;;;;30.93;43.33;99780.91;1738272;82;21108;-70
2022/06/28 10:05:36;;;;;;;12.63;4.97;;;;;;;31.03;44.70;99781.80;1716212;82;21422;-70
2022/06/28 10:08:03;;;;;;;7.30;4.47;;;;;;;31.13;44.67;99778.45;1705686;83;21880;-70
2022/06/28 10:10:31;;;;;;;6.58;4.42;;;;;;;31.19;43.75;99778.66;1703914;83;21586;-69
2022/06/28 10:16:12;;;;;;;8.05;3.95;;;;;;;31.27;43.91;99774.31;1712872;83;21025;-70
2022/06/28 10:18:38;;;;;;;4.50;3.80;;;;;;;31.29;43.35;99774.66;1656418;84;21053;-69
2022/06/28 10:21:05;;;;;;;6.35;4.65;;;;;;;31.28;42.59;99773.08;1706847;83;21031;-70
2022/06/28 10:23:37;;;;;;;8.48;4.35;;;;;;;31.26;42.86;99761.97;1712636;83;21488;-68
2022/06/28 10:26:19;;;;;;;4.47;4.07;;;;;;;31.32;44.18;99766.63;1720210;83;21553;-69
2022/06/28 10:29:09;;;;;;;7.50;4.37;;;;;;;31.38;44.01;99770.31;1704490;83;21097;-68
2022/06/28 10:31:43;;;;;;;9.33;4.50;;;;;;;31.37;43.08;99773.00;1707062;83;21560;-73
2022/06/28 10:34:15;;;;;;;9.78;4.35;;;;;;;31.26;42.64;99765.63;1705051;83;21035;-67
2022/06/28 10:36:54;;;;;;;5.22;4.72;;;;;;;31.10;42.65;99761.66;1709409;83;21526;-71
2022/06/28 10:39:31;;;;;;;4.72;4.33;;;;;;;31.01;43.19;99763.00;1709296;83;22287;-69
2022/06/28 10:42:08;;;;;;;5.47;4.20;;;;;;;31.05;43.87;99762.89;1685182;84;21052;-71
2022/06/28 10:44:42;;;;;;;7.70;4.53;;;;;;;31.18;44.20;99762.86;1685217;84;21015;-73
2022/06/28 10:47:14;;;;;;;7.70;4.53;;;;;;;31.29;44.13;99763.28;1710398;82;21115;-70
2022/06/28 10:49:57;;;;;;;9.15;4.75;;;;;;;31.36;43.77;99767.92;1715189;83;21071;-70
2022/06/28 10:52:37;;;;;;;17.30;4.80;;;;;;;31.45;44.04;99752.41;1707153;82;21226;-70
2022/06/28 10:55:09;;;;;;;26.10;5.20;;;;;;;31.58;43.72;99762.92;1713169;82;21554;-69
2022/06/28 10:57:40;;;;;;;9.03;4.30;;;;;;;31.71;42.75;99755.78;1722043;83;21136;-70
2022/06/28 11:00:22;;;;;;;4.90;4.40;;;;;;;31.79;42.50;99752.03;1712627;82;21049;-70
2022/06/28 11:02:56;;;;;;;34.57;6.17;;;;;;;31.86;41.83;99755.24;1690971;84;21062;-70
2022/06/28 11:05:24;;;;;;;9.10;4.22;;;;;;;31.93;42.22;99750.09;1705665;83;21721;-70
2022/06/28 11:08:02;;;;;;;7.47;4.33;;;;;;;32.04;42.54;99746.08;1711053;83;22315;-67
2022/06/28 11:10:31;;;;;;;7.10;4.83;;;;;;;32.15;41.80;99742.80;1721904;81;21058;-69
2022/06/28 11:13:21;;;;;;;8.70;4.45;;;;;;;32.27;42.03;99745.41;1678813;83;21052;-67
2022/06/28 11:15:49;;;;;;;5.55;4.28;;;;;;;32.41;41.80;99745.48;1704874;83;21042;-68
2022/06/28 11:18:17;;;;;;;5.78;4.30;;;;;;;32.54;41.14;99739.08;1692154;83;21637;-69
2022/06/28 11:20:43;;;;;;;7.97;4.45;;;;;;;32.62;40.76;99738.15;1715369;82;21106;-68
2022/06/28 11:23:11;;;;;;;8.35;4.50;;;;;;;32.66;40.66;99740.23;1707785;83;21150;-68
2022/06/28 11:28:25;;;;;;;6.22;4.65;;;;;;;32.60;39.96;99736.39;1720254;82;21094;-69
2022/06/28 11:30:51;;;;;;;36.63;6.05;;;;;;;32.47;39.30;99732.20;1720977;81;21126;-68
2022/06/28 11:33:20;;;;;;;11.63;5.45;;;;;;;32.32;40.10;99733.41;1708374;81;20982;-67
2022/06/28 11:35:47;;;;;;;7.90;4.58;;;;;;;32.29;41.15;99730.88;1702118;83;21040;-67
2022/06/28 11:38:16;;;;;;;8.03;4.80;;;;;;;32.38;42.15;99724.41;1715398;82;20972;-68
2022/06/28 11:40:51;;;;;;;18.10;4.55;;;;;;;32.46;41.36;99726.35;1722511;81;21102;-68
2022/06/28 11:43:25;;;;;;;7.25;4.58;;;;;;;32.51;40.85;99729.22;1723456;81;22520;-68
2022/06/28 11:45:50;;;;;;;4.83;4.33;;;;;;;32.45;40.27;99729.67;1705365;83;21535;-68
2022/06/28 11:48:33;;;;;;;4.80;4.22;;;;;;;32.40;40.80;99733.91;1711951;83;22458;-69
2022/06/28 11:51:00;;;;;;;6.42;4.40;;;;;;;32.43;40.84;99725.88;1704902;83;21101;-68
2022/06/28 11:53:29;;;;;;;6.87;4.53;;;;;;;32.57;41.04;99725.16;1728145;81;20996;-67
2022/06/28 11:55:57;;;;;;;8.50;4.00;;;;;;;32.72;41.24;99716.16;1717308;82;21772;-68
2022/06/28 11:58:28;;;;;;;18.27;5.35;;;;;;;32.84;40.38;99710.17;1705213;81;21503;-68
2022/06/28 12:01:14;;;;;;;6.15;4.08;;;;;;;32.94;40.99;99713.87;1706723;82;21070;-69